sensor_id;sensor_type;location;lat;lon;timestamp;temperature;humidity
75134;HTU21D;63706;44.708;37.780;2022-10-04T00:04:40;16.49;65.93
75134;HTU21D;63706;44.708;37.780;2022-10-04T00:12:20;16.48;65.98
75134;HTU21D;63706;44.708;37.780;2022-10-04T00:14:46;16.48;66.02
75134;HTU21D;63706;44.708;37.780;2022-10-04T00:17:13;16.47;66.14
75134;HTU21D;63706;44.708;37.780;2022-10-04T00:19:46;16.47;66.12
75134;HTU21D;63706;44.708;37.780;2022-10-04T00:22:31;16.47;66.11
75134;HTU21D;63706;44.708;37.780;2022-10-04T00:27:26;16.46;66.07
75134;HTU21D;63706;44.708;37.780;2022-10-04T00:34:53;16.46;66.13
75134;HTU21D;63706;44.708;37.780;2022-10-04T00:37:20;16.45;66.11
75134;HTU21D;63706;44.708;37.780;2022-10-04T00:39:46;16.46;66.12
75134;HTU21D;63706;44.708;37.780;2022-10-04T00:45:14;16.45;66.09
75134;HTU21D;63706;44.708;37.780;2022-10-04T00:52:36;16.42;66.11
75134;HTU21D;63706;44.708;37.780;2022-10-04T00:55:05;16.40;66.11
75134;HTU21D;63706;44.708;37.780;2022-10-04T00:57:42;16.39;66.08
75134;HTU21D;63706;44.708;37.780;2022-10-04T01:00:14;16.34;66.11
75134;HTU21D;63706;44.708;37.780;2022-10-04T01:05:08;16.32;66.13
75134;HTU21D;63706;44.708;37.780;2022-10-04T01:15:30;16.29;66.12
75134;HTU21D;63706;44.708;37.780;2022-10-04T01:18:06;16.27;66.12
75134;HTU21D;63706;44.708;37.780;2022-10-04T01:20:34;16.26;66.14
75134;HTU21D;63706;44.708;37.780;2022-10-04T01:23:01;16.24;66.13
75134;HTU21D;63706;44.708;37.780;2022-10-04T01:25:44;16.22;66.15
75134;HTU21D;63706;44.708;37.780;2022-10-04T01:28:10;16.19;66.16
75134;HTU21D;63706;44.708;37.780;2022-10-04T01:30:36;16.18;66.16
75134;HTU21D;63706;44.708;37.780;2022-10-04T01:33:02;16.15;66.17
75134;HTU21D;63706;44.708;37.780;2022-10-04T01:35:31;16.14;66.20
75134;HTU21D;63706;44.708;37.780;2022-10-04T01:38:01;16.13;66.22
75134;HTU21D;63706;44.708;37.780;2022-10-04T01:40:26;16.12;66.24
75134;HTU21D;63706;44.708;37.780;2022-10-04T01:42:54;16.11;66.27
75134;HTU21D;63706;44.708;37.780;2022-10-04T01:48:07;16.10;66.25
75134;HTU21D;63706;44.708;37.780;2022-10-04T01:50:39;16.08;66.27
75134;HTU21D;63706;44.708;37.780;2022-10-04T01:55:34;16.07;66.28
75134;HTU21D;63706;44.708;37.780;2022-10-04T01:58:07;16.07;66.31
75134;HTU21D;63706;44.708;37.780;2022-10-04T02:00:35;16.08;66.33
75134;HTU21D;63706;44.708;37.780;2022-10-04T02:03:03;16.06;66.30
75134;HTU21D;63706;44.708;37.780;2022-10-04T02:05:37;16.07;66.31
75134;HTU21D;63706;44.708;37.780;2022-10-04T02:08:06;16.07;66.30
75134;HTU21D;63706;44.708;37.780;2022-10-04T02:10:33;16.05;66.28
75134;HTU21D;63706;44.708;37.780;2022-10-04T02:13:01;16.03;66.29
75134;HTU21D;63706;44.708;37.780;2022-10-04T02:15:27;16.03;66.30
75134;HTU21D;63706;44.708;37.780;2022-10-04T02:17:54;16.02;66.32
75134;HTU21D;63706;44.708;37.780;2022-10-04T02:20:22;16.01;66.33
75134;HTU21D;63706;44.708;37.780;2022-10-04T02:22:50;16.01;66.36
75134;HTU21D;63706;44.708;37.780;2022-10-04T02:25:17;16.03;66.36
75134;HTU21D;63706;44.708;37.780;2022-10-04T02:27:44;16.03;66.35
75134;HTU21D;63706;44.708;37.780;2022-10-04T02:30:10;16.01;66.31
75134;HTU21D;63706;44.708;37.780;2022-10-04T02:32:37;15.99;66.34
75134;HTU21D;63706;44.708;37.780;2022-10-04T02:35:22;15.97;66.31
75134;HTU21D;63706;44.708;37.780;2022-10-04T02:37:53;15.93;66.38
75134;HTU21D;63706;44.708;37.780;2022-10-04T02:40:24;15.91;66.36
75134;HTU21D;63706;44.708;37.780;2022-10-04T02:42:57;15.89;66.36
75134;HTU21D;63706;44.708;37.780;2022-10-04T02:45:31;15.86;66.39
75134;HTU21D;63706;44.708;37.780;2022-10-04T02:47:59;15.84;66.39
75134;HTU21D;63706;44.708;37.780;2022-10-04T02:50:30;15.81;66.40
75134;HTU21D;63706;44.708;37.780;2022-10-04T02:53:08;15.78;66.46
75134;HTU21D;63706;44.708;37.780;2022-10-04T02:55:36;15.78;66.49
75134;HTU21D;63706;44.708;37.780;2022-10-04T02:58:06;15.78;66.52
75134;HTU21D;63706;44.708;37.780;2022-10-04T03:00:33;15.77;66.53
75134;HTU21D;63706;44.708;37.780;2022-10-04T03:03:14;15.76;66.59
75134;HTU21D;63706;44.708;37.780;2022-10-04T03:08:18;15.76;66.62
75134;HTU21D;63706;44.708;37.780;2022-10-04T03:10:44;15.77;66.63
75134;HTU21D;63706;44.708;37.780;2022-10-04T03:13:10;15.78;66.63
75134;HTU21D;63706;44.708;37.780;2022-10-04T03:15:37;15.78;66.62
75134;HTU21D;63706;44.708;37.780;2022-10-04T03:18:03;15.76;66.62
75134;HTU21D;63706;44.708;37.780;2022-10-04T03:20:29;15.76;66.70
75134;HTU21D;63706;44.708;37.780;2022-10-04T03:22:55;15.73;66.61
75134;HTU21D;63706;44.708;37.780;2022-10-04T03:25:28;15.73;67.11
75134;HTU21D;63706;44.708;37.780;2022-10-04T03:27:55;15.72;67.25
75134;HTU21D;63706;44.708;37.780;2022-10-04T03:30:23;15.72;67.26
75134;HTU21D;63706;44.708;37.780;2022-10-04T03:32:49;15.73;67.31
75134;HTU21D;63706;44.708;37.780;2022-10-04T03:35:19;15.76;67.43
75134;HTU21D;63706;44.708;37.780;2022-10-04T03:37:50;15.82;67.39
75134;HTU21D;63706;44.708;37.780;2022-10-04T03:40:16;15.90;67.41
75134;HTU21D;63706;44.708;37.780;2022-10-04T03:42:42;16.00;67.43
75134;HTU21D;63706;44.708;37.780;2022-10-04T03:45:15;16.08;67.63
75134;HTU21D;63706;44.708;37.780;2022-10-04T03:47:43;16.17;67.84
75134;HTU21D;63706;44.708;37.780;2022-10-04T03:50:13;16.24;67.68
75134;HTU21D;63706;44.708;37.780;2022-10-04T03:52:42;16.27;68.07
75134;HTU21D;63706;44.708;37.780;2022-10-04T03:55:09;16.28;67.75
75134;HTU21D;63706;44.708;37.780;2022-10-04T03:57:36;16.29;67.91
75134;HTU21D;63706;44.708;37.780;2022-10-04T04:00:03;16.30;68.62
75134;HTU21D;63706;44.708;37.780;2022-10-04T04:05:26;16.31;68.36
75134;HTU21D;63706;44.708;37.780;2022-10-04T04:10:23;16.35;68.33
75134;HTU21D;63706;44.708;37.780;2022-10-04T04:12:52;16.41;68.60
75134;HTU21D;63706;44.708;37.780;2022-10-04T04:15:19;16.44;68.99
75134;HTU21D;63706;44.708;37.780;2022-10-04T04:17:46;16.47;68.68
75134;HTU21D;63706;44.708;37.780;2022-10-04T04:22:45;16.58;68.75
75134;HTU21D;63706;44.708;37.780;2022-10-04T04:25:13;16.63;68.58
75134;HTU21D;63706;44.708;37.780;2022-10-04T04:27:40;16.72;68.89
75134;HTU21D;63706;44.708;37.780;2022-10-04T04:30:06;16.78;68.81
75134;HTU21D;63706;44.708;37.780;2022-10-04T04:32:36;16.85;69.38
75134;HTU21D;63706;44.708;37.780;2022-10-04T04:35:05;16.91;69.29
75134;HTU21D;63706;44.708;37.780;2022-10-04T04:37:36;16.99;68.91
75134;HTU21D;63706;44.708;37.780;2022-10-04T04:40:21;17.20;69.32
75134;HTU21D;63706;44.708;37.780;2022-10-04T04:42:48;18.19;69.29
75134;HTU21D;63706;44.708;37.780;2022-10-04T04:45:16;19.33;67.55
75134;HTU21D;63706;44.708;37.780;2022-10-04T04:47:44;20.46;65.69
75134;HTU21D;63706;44.708;37.780;2022-10-04T04:52:44;22.35;61.65
75134;HTU21D;63706;44.708;37.780;2022-10-04T04:55:31;23.12;61.38
75134;HTU21D;63706;44.708;37.780;2022-10-04T04:57:58;23.81;59.77
75134;HTU21D;63706;44.708;37.780;2022-10-04T05:00:31;23.82;58.14
75134;HTU21D;63706;44.708;37.780;2022-10-04T05:03:02;23.71;59.13
75134;HTU21D;63706;44.708;37.780;2022-10-04T05:05:29;23.75;57.20
75134;HTU21D;63706;44.708;37.780;2022-10-04T05:08:10;24.04;59.00
75134;HTU21D;63706;44.708;37.780;2022-10-04T05:10:38;24.70;56.84
75134;HTU21D;63706;44.708;37.780;2022-10-04T05:13:05;25.31;56.25
75134;HTU21D;63706;44.708;37.780;2022-10-04T05:15:36;25.33;53.96
75134;HTU21D;63706;44.708;37.780;2022-10-04T05:18:13;24.69;54.97
75134;HTU21D;63706;44.708;37.780;2022-10-04T05:20:43;23.99;56.04
75134;HTU21D;63706;44.708;37.780;2022-10-04T05:23:11;23.36;56.81
75134;HTU21D;63706;44.708;37.780;2022-10-04T05:25:37;22.85;57.51
75134;HTU21D;63706;44.708;37.780;2022-10-04T05:28:03;22.39;58.05
75134;HTU21D;63706;44.708;37.780;2022-10-04T05:30:42;22.01;58.77
75134;HTU21D;63706;44.708;37.780;2022-10-04T05:33:23;21.79;59.16
75134;HTU21D;63706;44.708;37.780;2022-10-04T05:43:45;26.24;54.49
75134;HTU21D;63706;44.708;37.780;2022-10-04T05:46:16;26.77;52.16
75134;HTU21D;63706;44.708;37.780;2022-10-04T05:48:44;27.21;51.60
75134;HTU21D;63706;44.708;37.780;2022-10-04T05:53:48;28.67;50.33
75134;HTU21D;63706;44.708;37.780;2022-10-04T06:07:21;29.86;46.72
75134;HTU21D;63706;44.708;37.780;2022-10-04T06:12:25;28.52;45.10
75134;HTU21D;63706;44.708;37.780;2022-10-04T06:14:59;27.39;47.60
75134;HTU21D;63706;44.708;37.780;2022-10-04T06:22:32;25.30;51.37
75134;HTU21D;63706;44.708;37.780;2022-10-04T06:25:04;24.92;52.07
75134;HTU21D;63706;44.708;37.780;2022-10-04T06:27:47;24.59;52.23
75134;HTU21D;63706;44.708;37.780;2022-10-04T06:30:18;24.27;52.95
75134;HTU21D;63706;44.708;37.780;2022-10-04T06:48:27;23.28;53.73
75134;HTU21D;63706;44.708;37.780;2022-10-04T06:53:25;23.23;54.43
75134;HTU21D;63706;44.708;37.780;2022-10-04T06:56:08;23.26;54.47
75134;HTU21D;63706;44.708;37.780;2022-10-04T07:01:29;23.31;54.36
75134;HTU21D;63706;44.708;37.780;2022-10-04T07:06:42;23.29;54.32
75134;HTU21D;63706;44.708;37.780;2022-10-04T07:09:15;23.27;54.59
75134;HTU21D;63706;44.708;37.780;2022-10-04T07:11:54;23.25;54.33
75134;HTU21D;63706;44.708;37.780;2022-10-04T07:14:26;23.15;54.10
75134;HTU21D;63706;44.708;37.780;2022-10-04T07:19:44;22.83;54.19
75134;HTU21D;63706;44.708;37.780;2022-10-04T07:29:57;22.95;54.43
75134;HTU21D;63706;44.708;37.780;2022-10-04T07:32:27;22.94;54.62
75134;HTU21D;63706;44.708;37.780;2022-10-04T07:37:26;22.98;54.63
75134;HTU21D;63706;44.708;37.780;2022-10-04T07:42:27;23.09;54.63
75134;HTU21D;63706;44.708;37.780;2022-10-04T07:45:07;23.14;54.65
75134;HTU21D;63706;44.708;37.780;2022-10-04T07:47:35;23.25;54.71
75134;HTU21D;63706;44.708;37.780;2022-10-04T07:50:13;23.36;54.74
75134;HTU21D;63706;44.708;37.780;2022-10-04T07:52:58;23.47;54.65
75134;HTU21D;63706;44.708;37.780;2022-10-04T08:05:57;23.55;54.19
75134;HTU21D;63706;44.708;37.780;2022-10-04T08:08:28;23.49;54.30
75134;HTU21D;63706;44.708;37.780;2022-10-04T08:11:17;23.40;54.26
75134;HTU21D;63706;44.708;37.780;2022-10-04T08:16:27;23.24;54.43
75134;HTU21D;63706;44.708;37.780;2022-10-04T08:19:00;23.15;53.43
75134;HTU21D;63706;44.708;37.780;2022-10-04T08:21:33;23.08;53.87
75134;HTU21D;63706;44.708;37.780;2022-10-04T08:27:14;22.84;53.84
75134;HTU21D;63706;44.708;37.780;2022-10-04T08:32:26;22.84;54.07
75134;HTU21D;63706;44.708;37.780;2022-10-04T08:56:25;22.50;54.65
75134;HTU21D;63706;44.708;37.780;2022-10-04T09:01:30;22.35;54.55
75134;HTU21D;63706;44.708;37.780;2022-10-04T09:04:13;22.27;54.78
75134;HTU21D;63706;44.708;37.780;2022-10-04T09:12:13;22.23;54.96
75134;HTU21D;63706;44.708;37.780;2022-10-04T09:30:41;22.25;54.47
75134;HTU21D;63706;44.708;37.780;2022-10-04T09:40:55;22.07;54.78
75134;HTU21D;63706;44.708;37.780;2022-10-04T09:43:51;22.04;54.95
75134;HTU21D;63706;44.708;37.780;2022-10-04T09:59:25;21.88;55.26
75134;HTU21D;63706;44.708;37.780;2022-10-04T10:05:01;21.85;55.46
75134;HTU21D;63706;44.708;37.780;2022-10-04T10:19:11;21.75;55.63
75134;HTU21D;63706;44.708;37.780;2022-10-04T10:21:37;21.76;55.49
75134;HTU21D;63706;44.708;37.780;2022-10-04T10:24:18;21.74;55.46
75134;HTU21D;63706;44.708;37.780;2022-10-04T10:26:55;21.68;55.58
75134;HTU21D;63706;44.708;37.780;2022-10-04T10:29:30;21.63;55.72
75134;HTU21D;63706;44.708;37.780;2022-10-04T10:39:36;21.58;55.92
75134;HTU21D;63706;44.708;37.780;2022-10-04T10:49:47;21.51;55.92
75134;HTU21D;63706;44.708;37.780;2022-10-04T10:55:08;21.46;56.03
75134;HTU21D;63706;44.708;37.780;2022-10-04T11:00:19;21.43;55.89
75134;HTU21D;63706;44.708;37.780;2022-10-04T11:27:13;21.22;56.48
75134;HTU21D;63706;44.708;37.780;2022-10-04T11:35:25;21.23;56.43
75134;HTU21D;63706;44.708;37.780;2022-10-04T11:38:00;21.24;56.49
75134;HTU21D;63706;44.708;37.780;2022-10-04T11:45:55;21.33;56.48
75134;HTU21D;63706;44.708;37.780;2022-10-04T11:56:03;21.37;56.39
75134;HTU21D;63706;44.708;37.780;2022-10-04T12:12:07;21.36;56.28
75134;HTU21D;63706;44.708;37.780;2022-10-04T12:20:37;21.43;56.43
75134;HTU21D;63706;44.708;37.780;2022-10-04T12:39:05;21.53;56.25
75134;HTU21D;63706;44.708;37.780;2022-10-04T12:52:20;21.40;56.26
75134;HTU21D;63706;44.708;37.780;2022-10-04T12:55:09;21.35;56.33
75134;HTU21D;63706;44.708;37.780;2022-10-04T13:00:23;21.31;56.32
75134;HTU21D;63706;44.708;37.780;2022-10-04T13:05:26;21.27;56.15
75134;HTU21D;63706;44.708;37.780;2022-10-04T13:18:39;21.09;56.48
75134;HTU21D;63706;44.708;37.780;2022-10-04T13:31:31;21.09;56.77
75134;HTU21D;63706;44.708;37.780;2022-10-04T13:34:05;21.08;56.84
75134;HTU21D;63706;44.708;37.780;2022-10-04T13:47:27;21.18;57.04
75134;HTU21D;63706;44.708;37.780;2022-10-04T13:58:56;21.13;57.00
75134;HTU21D;63706;44.708;37.780;2022-10-04T14:06:32;20.91;57.15
75134;HTU21D;63706;44.708;37.780;2022-10-04T14:09:20;20.86;57.25
75134;HTU21D;63706;44.708;37.780;2022-10-04T14:20:09;20.78;57.48
75134;HTU21D;63706;44.708;37.780;2022-10-04T14:36:38;20.51;57.61
75134;HTU21D;63706;44.708;37.780;2022-10-04T14:44:30;20.33;57.73
75134;HTU21D;63706;44.708;37.780;2022-10-04T14:52:57;20.09;57.92
75134;HTU21D;63706;44.708;37.780;2022-10-04T15:03:47;19.83;58.12
75134;HTU21D;63706;44.708;37.780;2022-10-04T15:11:30;19.67;58.20
75134;HTU21D;63706;44.708;37.780;2022-10-04T15:13:59;19.59;58.23
75134;HTU21D;63706;44.708;37.780;2022-10-04T15:16:45;19.53;58.26
75134;HTU21D;63706;44.708;37.780;2022-10-04T15:21:50;19.39;58.36
75134;HTU21D;63706;44.708;37.780;2022-10-04T15:24:20;19.32;58.40
75134;HTU21D;63706;44.708;37.780;2022-10-04T15:32:18;19.13;58.81
75134;HTU21D;63706;44.708;37.780;2022-10-04T15:37:34;19.03;59.00
75134;HTU21D;63706;44.708;37.780;2022-10-04T15:42:34;18.93;59.15
75134;HTU21D;63706;44.708;37.780;2022-10-04T15:52:50;18.73;59.62
75134;HTU21D;63706;44.708;37.780;2022-10-04T15:58:25;18.65;59.74
75134;HTU21D;63706;44.708;37.780;2022-10-04T16:00:47;18.61;59.79
75134;HTU21D;63706;44.708;37.780;2022-10-04T16:05:48;18.53;60.32
75134;HTU21D;63706;44.708;37.780;2022-10-04T16:43:20;18.15;63.05
75134;HTU21D;63706;44.708;37.780;2022-10-04T16:45:49;18.17;63.27
75134;HTU21D;63706;44.708;37.780;2022-10-04T16:59:00;18.03;62.80
75134;HTU21D;63706;44.708;37.780;2022-10-04T17:01:32;17.98;63.00
75134;HTU21D;63706;44.708;37.780;2022-10-04T17:06:48;17.91;63.01
75134;HTU21D;63706;44.708;37.780;2022-10-04T17:09:23;17.85;62.87
75134;HTU21D;63706;44.708;37.780;2022-10-04T17:11:59;17.81;62.86
75134;HTU21D;63706;44.708;37.780;2022-10-04T17:14:31;17.79;63.62
75134;HTU21D;63706;44.708;37.780;2022-10-04T17:17:43;17.74;63.07
75134;HTU21D;63706;44.708;37.780;2022-10-04T17:19:51;17.69;63.04
75134;HTU21D;63706;44.708;37.780;2022-10-04T17:30:19;17.56;63.22
75134;HTU21D;63706;44.708;37.780;2022-10-04T17:38:10;17.51;63.99
75134;HTU21D;63706;44.708;37.780;2022-10-04T17:40:53;17.50;64.30
75134;HTU21D;63706;44.708;37.780;2022-10-04T17:43:29;17.49;64.54
75134;HTU21D;63706;44.708;37.780;2022-10-04T17:48:27;17.46;65.20
75134;HTU21D;63706;44.708;37.780;2022-10-04T17:51:26;17.44;64.97
75134;HTU21D;63706;44.708;37.780;2022-10-04T17:54:13;17.40;64.79
75134;HTU21D;63706;44.708;37.780;2022-10-04T17:59:28;17.34;64.69
75134;HTU21D;63706;44.708;37.780;2022-10-04T18:01:59;17.30;64.75
75134;HTU21D;63706;44.708;37.780;2022-10-04T18:04:29;17.28;65.01
75134;HTU21D;63706;44.708;37.780;2022-10-04T18:09:27;17.24;64.77
75134;HTU21D;63706;44.708;37.780;2022-10-04T18:11:57;17.21;64.83
75134;HTU21D;63706;44.708;37.780;2022-10-04T18:16:53;17.16;64.85
75134;HTU21D;63706;44.708;37.780;2022-10-04T18:22:16;17.13;65.13
75134;HTU21D;63706;44.708;37.780;2022-10-04T18:24:42;17.10;65.13
75134;HTU21D;63706;44.708;37.780;2022-10-04T18:27:16;17.08;65.01
75134;HTU21D;63706;44.708;37.780;2022-10-04T18:34:54;17.01;65.14
75134;HTU21D;63706;44.708;37.780;2022-10-04T18:37:27;17.00;65.05
75134;HTU21D;63706;44.708;37.780;2022-10-04T18:39:54;16.98;65.05
75134;HTU21D;63706;44.708;37.780;2022-10-04T18:42:29;16.94;65.18
75134;HTU21D;63706;44.708;37.780;2022-10-04T18:45:00;16.93;65.19
75134;HTU21D;63706;44.708;37.780;2022-10-04T18:49:52;16.92;66.06
75134;HTU21D;63706;44.708;37.780;2022-10-04T18:57:44;16.86;65.55
75134;HTU21D;63706;44.708;37.780;2022-10-04T19:00:40;16.81;65.49
75134;HTU21D;63706;44.708;37.780;2022-10-04T19:06:13;16.79;66.06
75134;HTU21D;63706;44.708;37.780;2022-10-04T19:11:27;16.79;65.91
75134;HTU21D;63706;44.708;37.780;2022-10-04T19:14:10;16.79;66.01
75134;HTU21D;63706;44.708;37.780;2022-10-04T19:27:03;16.79;66.04
75134;HTU21D;63706;44.708;37.780;2022-10-04T19:32:00;16.80;66.27
75134;HTU21D;63706;44.708;37.780;2022-10-04T19:39:31;16.85;66.18
75134;HTU21D;63706;44.708;37.780;2022-10-04T19:42:00;16.84;66.73
75134;HTU21D;63706;44.708;37.780;2022-10-04T19:44:30;16.85;66.71
75134;HTU21D;63706;44.708;37.780;2022-10-04T19:47:41;16.86;66.46
75134;HTU21D;63706;44.708;37.780;2022-10-04T19:52:30;16.89;67.01
75134;HTU21D;63706;44.708;37.780;2022-10-04T19:57:48;16.90;66.81
75134;HTU21D;63706;44.708;37.780;2022-10-04T20:00:18;16.89;66.69
75134;HTU21D;63706;44.708;37.780;2022-10-04T20:02:46;16.89;67.27
75134;HTU21D;63706;44.708;37.780;2022-10-04T20:05:14;16.88;67.14
75134;HTU21D;63706;44.708;37.780;2022-10-04T20:07:46;16.87;66.94
75134;HTU21D;63706;44.708;37.780;2022-10-04T20:10:27;16.85;67.01
75134;HTU21D;63706;44.708;37.780;2022-10-04T20:26:10;16.86;67.20
75134;HTU21D;63706;44.708;37.780;2022-10-04T20:31:10;16.86;67.27
75134;HTU21D;63706;44.708;37.780;2022-10-04T20:33:44;16.86;67.21
75134;HTU21D;63706;44.708;37.780;2022-10-04T20:36:11;16.87;67.43
75134;HTU21D;63706;44.708;37.780;2022-10-04T20:38:57;16.85;67.27
75134;HTU21D;63706;44.708;37.780;2022-10-04T20:43:54;16.86;67.03
75134;HTU21D;63706;44.708;37.780;2022-10-04T20:46:22;16.84;67.05
75134;HTU21D;63706;44.708;37.780;2022-10-04T20:48:49;16.85;67.34
75134;HTU21D;63706;44.708;37.780;2022-10-04T20:51:18;16.85;67.43
75134;HTU21D;63706;44.708;37.780;2022-10-04T20:53:45;16.85;67.45
75134;HTU21D;63706;44.708;37.780;2022-10-04T20:58:39;16.85;67.43
75134;HTU21D;63706;44.708;37.780;2022-10-04T21:01:39;16.84;67.40
75134;HTU21D;63706;44.708;37.780;2022-10-04T21:06:52;16.82;67.68
75134;HTU21D;63706;44.708;37.780;2022-10-04T21:09:18;16.84;67.60
75134;HTU21D;63706;44.708;37.780;2022-10-04T21:11:45;16.84;67.75
75134;HTU21D;63706;44.708;37.780;2022-10-04T21:14:26;16.85;67.72
75134;HTU21D;63706;44.708;37.780;2022-10-04T21:16:53;16.84;67.61
75134;HTU21D;63706;44.708;37.780;2022-10-04T21:22:06;16.81;67.81
75134;HTU21D;63706;44.708;37.780;2022-10-04T21:27:02;16.82;67.68
75134;HTU21D;63706;44.708;37.780;2022-10-04T21:29:28;16.80;67.67
75134;HTU21D;63706;44.708;37.780;2022-10-04T21:31:56;16.80;67.64
75134;HTU21D;63706;44.708;37.780;2022-10-04T21:34:22;16.79;67.64
75134;HTU21D;63706;44.708;37.780;2022-10-04T21:36:48;16.80;67.91
75134;HTU21D;63706;44.708;37.780;2022-10-04T21:39:14;16.78;67.75
75134;HTU21D;63706;44.708;37.780;2022-10-04T21:41:40;16.79;67.91
75134;HTU21D;63706;44.708;37.780;2022-10-04T21:44:05;16.79;67.64
75134;HTU21D;63706;44.708;37.780;2022-10-04T21:46:31;16.79;67.63
75134;HTU21D;63706;44.708;37.780;2022-10-04T21:48:57;16.77;67.62
75134;HTU21D;63706;44.708;37.780;2022-10-04T21:51:23;16.78;67.72
75134;HTU21D;63706;44.708;37.780;2022-10-04T21:53:48;16.77;68.01
75134;HTU21D;63706;44.708;37.780;2022-10-04T21:56:14;16.79;67.96
75134;HTU21D;63706;44.708;37.780;2022-10-04T21:58:40;16.78;68.06
75134;HTU21D;63706;44.708;37.780;2022-10-04T22:01:06;16.76;67.97
75134;HTU21D;63706;44.708;37.780;2022-10-04T22:03:32;16.75;67.81
75134;HTU21D;63706;44.708;37.780;2022-10-04T22:05:58;16.71;67.84
75134;HTU21D;63706;44.708;37.780;2022-10-04T22:08:23;16.67;67.93
75134;HTU21D;63706;44.708;37.780;2022-10-04T22:10:49;16.65;68.07
75134;HTU21D;63706;44.708;37.780;2022-10-04T22:13:15;16.63;68.19
75134;HTU21D;63706;44.708;37.780;2022-10-04T22:15:41;16.62;68.23
75134;HTU21D;63706;44.708;37.780;2022-10-04T22:18:06;16.60;68.21
75134;HTU21D;63706;44.708;37.780;2022-10-04T22:20:32;16.60;68.10
75134;HTU21D;63706;44.708;37.780;2022-10-04T22:22:58;16.57;67.99
75134;HTU21D;63706;44.708;37.780;2022-10-04T22:25:26;16.52;68.04
75134;HTU21D;63706;44.708;37.780;2022-10-04T22:27:52;16.49;67.97
75134;HTU21D;63706;44.708;37.780;2022-10-04T22:30:26;16.47;67.98
75134;HTU21D;63706;44.708;37.780;2022-10-04T22:32:55;16.45;68.06
75134;HTU21D;63706;44.708;37.780;2022-10-04T22:35:22;16.42;68.09
75134;HTU21D;63706;44.708;37.780;2022-10-04T22:37:48;16.42;68.01
75134;HTU21D;63706;44.708;37.780;2022-10-04T22:40:15;16.40;68.03
75134;HTU21D;63706;44.708;37.780;2022-10-04T22:42:41;16.39;68.08
75134;HTU21D;63706;44.708;37.780;2022-10-04T22:45:08;16.39;68.10
75134;HTU21D;63706;44.708;37.780;2022-10-04T22:47:40;16.41;68.38
75134;HTU21D;63706;44.708;37.780;2022-10-04T22:50:09;16.42;68.32
75134;HTU21D;63706;44.708;37.780;2022-10-04T22:52:37;16.42;68.19
75134;HTU21D;63706;44.708;37.780;2022-10-04T22:55:16;16.40;68.29
75134;HTU21D;63706;44.708;37.780;2022-10-04T22:57:42;16.39;68.23
75134;HTU21D;63706;44.708;37.780;2022-10-04T23:00:09;16.40;68.46
75134;HTU21D;63706;44.708;37.780;2022-10-04T23:02:35;16.40;68.34
75134;HTU21D;63706;44.708;37.780;2022-10-04T23:05:08;16.40;68.32
75134;HTU21D;63706;44.708;37.780;2022-10-04T23:07:35;16.40;68.19
75134;HTU21D;63706;44.708;37.780;2022-10-04T23:10:01;16.37;68.13
75134;HTU21D;63706;44.708;37.780;2022-10-04T23:12:26;16.36;68.18
75134;HTU21D;63706;44.708;37.780;2022-10-04T23:14:52;16.33;68.05
75134;HTU21D;63706;44.708;37.780;2022-10-04T23:17:25;16.31;67.97
75134;HTU21D;63706;44.708;37.780;2022-10-04T23:20:14;16.28;67.97
75134;HTU21D;63706;44.708;37.780;2022-10-04T23:22:38;16.26;67.91
75134;HTU21D;63706;44.708;37.780;2022-10-04T23:25:14;16.24;68.00
75134;HTU21D;63706;44.708;37.780;2022-10-04T23:27:40;16.24;67.94
75134;HTU21D;63706;44.708;37.780;2022-10-04T23:30:14;16.22;67.88
75134;HTU21D;63706;44.708;37.780;2022-10-04T23:32:40;16.21;67.86
75134;HTU21D;63706;44.708;37.780;2022-10-04T23:35:11;16.20;67.87
75134;HTU21D;63706;44.708;37.780;2022-10-04T23:37:39;16.20;67.84
75134;HTU21D;63706;44.708;37.780;2022-10-04T23:40:07;16.19;67.87
75134;HTU21D;63706;44.708;37.780;2022-10-04T23:42:33;16.20;67.84
75134;HTU21D;63706;44.708;37.780;2022-10-04T23:45:01;16.22;67.78
75134;HTU21D;63706;44.708;37.780;2022-10-04T23:47:32;16.21;67.75
75134;HTU21D;63706;44.708;37.780;2022-10-04T23:49:57;16.22;67.73
75134;HTU21D;63706;44.708;37.780;2022-10-04T23:52:24;16.22;67.65
75134;HTU21D;63706;44.708;37.780;2022-10-04T23:54:51;16.27;67.64
75134;HTU21D;63706;44.708;37.780;2022-10-04T23:57:20;16.28;67.52
75134;HTU21D;63706;44.708;37.780;2022-10-04T23:59:46;16.29;67.47
